Observations for WELLINGTON INTL, New Zealand (NZWN)

NZWN 130830Z AUTO 36005KT 9999 SCT070/// BKN100/// 18/14 Q1016 BECMG 17010KT
NZWN 130800Z AUTO 36007KT 9999 BKN065/// OVC100/// 18/14 Q1016 BECMG 17010KT
NZWN 130730Z AUTO 03005KT 350V060 9999 FEW060/// 19/14 Q1015 NOSIG  
NZWN 130700Z AUTO 05006KT 010V080 9999 FEW036/// 19/14 Q1015 NOSIG  
NZWN 130630Z AUTO 04008KT 9999 FEW033/// SCT060/// 19/14 Q1015 NOSIG
NZWN 130600Z AUTO 25007KT 9999 BKN031/// BKN048/// 18/15 Q1015 NOSIG
NZWN 130530Z AUTO 14006KT 080V210 9999 BKN030/// BKN060/// 21/15 Q1014 NOSIG
NZWN 130500Z AUTO 15013KT 9999 BKN055/// 19/15 Q1014 NOSIG  
NZWN 130430Z AUTO 15016KT 9999 BKN055/// BKN070/// 18/15 Q1015 NOSIG
NZWN 130400Z AUTO 16012KT 120V190 9999 OVC060/// 18/15 Q1015 NOSIG  
NZWN 130330Z AUTO 16012KT 9999 FEW050/// BKN070/// 18/15 Q1015 NOSIG
NZWN 130300Z AUTO 18012KT 9999 SCT060/// 19/15 Q1015 NOSIG  
NZWN 130230Z AUTO 18012KT 9999 FEW065/// 19/14 Q1015 NOSIG  
NZWN 130200Z AUTO 19012KT 9999 FEW038/// 19/14 Q1015 NOSIG  
NZWN 130130Z AUTO 18012KT 9999 NCD 19/15 Q1015 NOSIG
NZWN 130100Z AUTO 18013KT 9999 NCD 19/14 Q1015  
NZWN 130030Z AUTO 19010KT 9999 SCT070/// 19/14 Q1015 NOSIG  
NZWN 130000Z AUTO 20011KT 9999 SCT070/// 18/14 Q1015 NOSIG  
NZWN 122330Z AUTO 20011KT 9999 NCD 18/14 Q1015 NOSIG
NZWN 122300Z AUTO 21009KT 9999 NCD 18/14 Q1015 NOSIG
NZWN 122230Z AUTO 17010KT 9999 NCD 19/15 Q1015 NOSIG
NZWN 122200Z AUTO 18009KT 9999 FEW032/// BKN040/// BKN100/// 18/15 Q1015 NOSIG  
NZWN 122130Z AUTO 16010KT 9999 BKN033/// 18/15 Q1015 NOSIG  
NZWN 122100Z AUTO 16009KT 9999 BKN032/// 17/14 Q1015 NOSIG  
NZWN 122030Z AUTO 17010KT 9999 FEW004/// 17/15 Q1015 NOSIG  
NZWN 122000Z AUTO 20008KT 9999 FEW004/// 16/14 Q1015
NZWN 121930Z AUTO 17004KT 110V220 9999 NCD 16/14 Q1015 NOSIG
NZWN 121900Z AUTO 21007KT 9999 FEW003/// SCT100/// 15/14 Q1015 NOSIG
NZWN 121830Z AUTO 20007KT 9999 BKN004/// 16/15 Q1015 BECMG TL2000 SCT004
NZWN 121800Z AUTO 20007KT 9999 BKN034/// 15/14 Q1015 NOSIG  
NZWN 121730Z AUTO 20008KT 9999 FEW002/// OVC036/// 15/14 Q1014 NOSIG
NZWN 121700Z AUTO 20006KT 1400 BCFG VV003 15/14 Q1014 BECMG FM1700 9999 NSW SCT020  
NZWN 121630Z AUTO 21005KT 1000 FG VV003 15/14 Q1014 BECMG FM1700 9999 NSW SCT020
NZWN 121600Z AUTO 20006KT 6000 OVC002/// 15/14 Q1014 BECMG 9999 BKN004 TEMPO 3000 BR BKN003 
NZWN 121530Z AUTO 21008KT 1700 BR OVC004/// 15/14 Q1014 BECMG 9999 -DZ TEMPO 3000 DZ BKN003 
NZWN 121500Z AUTO 22010KT 9000 OVC003/// 15/15 Q1013 TEMPO 4000 DZ  
NZWN 121430Z AUTO 23009KT 8000 OVC003/// 15/15 Q1013 TEMPO 4000 DZ BKN004   
NZWN 121400Z AUTO 23008KT 9999 OVC005/// 16/15 Q1014 TEMPO BKN004   
NZWN 121330Z AUTO 22009KT 9999 OVC004/// 16/15 Q1014 NOSIG  
NZWN 121300Z AUTO 22009KT 9999 OVC004/// 16/15 Q1014 BECMG BKN006 TEMPO BKN004  
NZWN 121230Z AUTO 22008KT 9999 OVC006/// 16/15 Q1014 TEMPO BKN004   
NZWN 121200Z AUTO 21008KT 9999 OVC005/// 16/15 Q1014 TEMPO BKN004 TEMPO FM1400 4000 DZ BKN004   
NZWN 121130Z AUTO 22007KT 9999 OVC008/// 16/15 Q1014 BECMG BKN006   
NZWN 121100Z AUTO 21006KT 9999 OVC010/// 16/15 Q1014 BECMG BKN008   
NZWN 121030Z AUTO 21007KT 9999 BKN007/// 16/15 Q1014 NOSIG  
NZWN 121000Z AUTO 22007KT 9999 SCT050/// SCT085/// 16/15 Q1014 NOSIG
NZWN 120930Z AUTO 22008KT 9999 BKN050/// 16/15 Q1014 NOSIG  
NZWN 120900Z AUTO 21008KT 9999 OVC044/// 16/15 Q1013 NOSIG  
NZWN 120830Z AUTO 22008KT 9999 BKN045/// 17/15 Q1013 NOSIG